Time;durP1;ratioP1;P1;durP2;ratioP2;P2;SDS_P1;SDS_P2;PMS_P1;PMS_P2;Temp;Humidity;BMP_temperature;BMP_pressure;BME280_temperature;BME280_humidity;BME280_pressure;Samples;Min_cycle;Max_cycle;Signal;HPM_P1;HPM_P2
2021/06/06 00:01:58;;;;;;;9.83;8.93;;;16.70;99.90;;;;;;5012827;28;20170;-67
2021/06/06 00:04:24;;;;;;;9.93;8.93;;;16.70;99.90;;;;;;5012650;28;20269;-67
2021/06/06 00:06:51;;;;;;;9.03;8.30;;;16.70;99.90;;;;;;5011375;28;20175;-67
2021/06/06 00:09:18;;;;;;;10.23;8.80;;;16.60;99.90;;;;;;5012030;28;20414;-67
2021/06/06 00:11:53;;;;;;;10.17;8.90;;;16.60;99.90;;;;;;5012693;28;20422;-67
2021/06/06 00:14:26;;;;;;;8.63;7.87;;;16.60;99.90;;;;;;5012503;28;20433;-67
2021/06/06 00:16:55;;;;;;;8.50;7.70;;;16.70;99.90;;;;;;5012395;28;20430;-67
2021/06/06 00:19:22;;;;;;;9.07;8.30;;;16.70;99.90;;;;;;5011785;28;20425;-67
2021/06/06 00:21:48;;;;;;;8.27;7.50;;;16.60;99.90;;;;;;5012427;28;20511;-67
2021/06/06 00:24:21;;;;;;;9.90;7.43;;;16.60;99.90;;;;;;5012446;28;20413;-67
2021/06/06 00:26:47;;;;;;;8.40;7.60;;;16.60;99.90;;;;;;5012481;28;20496;-67
2021/06/06 00:29:13;;;;;;;8.03;7.33;;;16.60;99.90;;;;;;5011764;28;20832;-67
2021/06/06 00:31:38;;;;;;;10.40;7.60;;;16.60;99.90;;;;;;5012348;28;20472;-67
2021/06/06 00:34:05;;;;;;;9.40;8.50;;;16.60;99.90;;;;;;5012120;28;20238;-67
2021/06/06 00:36:32;;;;;;;8.87;8.07;;;16.60;99.90;;;;;;5012236;28;20664;-67
2021/06/06 00:38:58;;;;;;;7.97;7.20;;;16.60;99.90;;;;;;5011504;28;20471;-67
2021/06/06 00:41:26;;;;;;;9.60;8.63;;;16.60;99.90;;;;;;5012173;28;20422;-67
2021/06/06 00:43:52;;;;;;;9.63;7.97;;;16.50;99.90;;;;;;5012032;28;20378;-67
2021/06/06 00:46:20;;;;;;;9.57;8.63;;;16.60;99.90;;;;;;5011916;28;20440;-67
2021/06/06 00:48:46;;;;;;;9.77;8.77;;;16.60;99.90;;;;;;5010386;28;20444;-67
2021/06/06 00:51:37;;;;;;;10.20;9.20;;;16.60;99.90;;;;;;5011919;28;20911;-68
2021/06/06 00:54:09;;;;;;;9.83;7.80;;;16.50;99.90;;;;;;5009314;28;20268;-67
2021/06/06 00:56:35;;;;;;;9.20;8.20;;;16.50;99.90;;;;;;5011683;28;20519;-67
2021/06/06 00:59:01;;;;;;;9.80;8.87;;;16.50;99.90;;;;;;5011057;28;20418;-67
2021/06/06 01:01:27;;;;;;;10.00;8.87;;;16.50;99.90;;;;;;5011810;28;20171;-67
2021/06/06 01:03:56;;;;;;;8.83;8.03;;;16.50;99.90;;;;;;5011900;28;20421;-67
2021/06/06 01:06:35;;;;;;;9.90;8.90;;;16.50;99.90;;;;;;5011733;28;20472;-67
2021/06/06 01:09:04;;;;;;;8.57;7.77;;;16.50;99.90;;;;;;5010742;28;20474;-67
2021/06/06 01:11:47;;;;;;;12.20;8.70;;;16.50;99.90;;;;;;5011655;28;20938;-67
2021/06/06 01:14:19;;;;;;;11.23;10.13;;;16.40;99.90;;;;;;5010436;28;20429;-67
2021/06/06 01:16:57;;;;;;;11.80;9.80;;;16.30;99.90;;;;;;5011596;28;20644;-67
2021/06/06 01:19:52;;;;;;;10.10;9.10;;;16.30;99.90;;;;;;5010767;28;20456;-67
2021/06/06 01:22:42;;;;;;;9.00;8.20;;;16.20;99.90;;;;;;5011649;28;20414;-67
2021/06/06 01:25:22;;;;;;;9.63;8.50;;;16.10;99.90;;;;;;5011327;28;20516;-67
2021/06/06 01:28:02;;;;;;;10.60;9.50;;;16.10;99.90;;;;;;5009377;28;20421;-67
2021/06/06 01:30:32;;;;;;;9.50;8.70;;;16.10;99.90;;;;;;5011578;28;20918;-67
2021/06/06 01:33:08;;;;;;;9.37;8.47;;;16.10;99.90;;;;;;5011387;28;20421;-67
2021/06/06 01:35:44;;;;;;;11.03;9.93;;;16.10;99.90;;;;;;5011011;28;20836;-67
2021/06/06 01:38:18;;;;;;;10.30;9.37;;;16.10;99.90;;;;;;5010470;28;20771;-67
2021/06/06 01:40:46;;;;;;;11.80;9.23;;;16.10;99.90;;;;;;5011178;28;20475;-67
2021/06/06 01:43:17;;;;;;;9.80;8.90;;;16.10;99.90;;;;;;5011076;28;20450;-67
2021/06/06 01:45:51;;;;;;;9.87;8.10;;;16.00;99.90;;;;;;5010942;28;21024;-67
2021/06/06 01:48:16;;;;;;;10.93;9.83;;;16.00;99.90;;;;;;5010382;28;20817;-67
2021/06/06 01:50:47;;;;;;;11.63;10.53;;;16.00;99.90;;;;;;5010943;28;20422;-67
2021/06/06 01:53:14;;;;;;;10.40;9.40;;;16.10;99.90;;;;;;5010967;28;20210;-67
2021/06/06 01:55:43;;;;;;;10.60;9.53;;;16.10;99.90;;;;;;5010930;28;20561;-67
2021/06/06 01:58:12;;;;;;;11.70;9.17;;;16.10;99.90;;;;;;5010290;28;20637;-67
2021/06/06 02:00:56;;;;;;;10.07;9.10;;;16.10;99.90;;;;;;5017146;28;20488;-67
2021/06/06 02:03:22;;;;;;;10.10;9.10;;;16.10;99.90;;;;;;5017491;28;20504;-67
2021/06/06 02:05:49;;;;;;;11.37;9.90;;;16.00;99.90;;;;;;5017600;28;20835;-67
2021/06/06 02:08:17;;;;;;;9.43;8.40;;;16.10;99.90;;;;;;5016864;28;20788;-67
2021/06/06 02:10:53;;;;;;;9.90;9.00;;;16.00;99.90;;;;;;5017334;28;20418;-67
2021/06/06 02:13:23;;;;;;;9.17;8.37;;;15.90;99.90;;;;;;5017429;28;20716;-67
2021/06/06 02:15:57;;;;;;;10.83;9.77;;;15.90;99.90;;;;;;5017175;28;20457;-67
2021/06/06 02:18:25;;;;;;;12.30;11.20;;;15.90;99.90;;;;;;5016639;28;20449;-67
2021/06/06 02:20:51;;;;;;;10.37;9.40;;;15.90;99.90;;;;;;5017187;28;20424;-67
2021/06/06 02:23:29;;;;;;;8.80;7.97;;;16.00;99.90;;;;;;5017242;28;20492;-67
2021/06/06 02:26:06;;;;;;;9.40;8.60;;;16.00;99.90;;;;;;5017235;28;20512;-67
2021/06/06 02:28:48;;;;;;;10.87;9.90;;;15.90;99.90;;;;;;5016585;28;20449;-67
2021/06/06 02:31:27;;;;;;;9.27;8.30;;;16.00;99.90;;;;;;5017440;28;20424;-67
2021/06/06 02:34:06;;;;;;;10.80;9.70;;;16.00;99.90;;;;;;5017334;28;20421;-67
2021/06/06 02:36:35;;;;;;;12.93;9.50;;;15.90;99.90;;;;;;5017016;28;20981;-67
2021/06/06 02:39:16;;;;;;;11.40;10.40;;;15.90;99.90;;;;;;5016528;28;20421;-67
2021/06/06 02:42:06;;;;;;;9.80;8.90;;;15.90;99.90;;;;;;5017174;28;20408;-67
2021/06/06 02:44:42;;;;;;;10.43;9.37;;;15.90;99.90;;;;;;5017057;28;20513;-67
2021/06/06 02:47:10;;;;;;;12.33;9.50;;;15.90;99.90;;;;;;5017505;28;20755;-67
2021/06/06 02:49:39;;;;;;;9.80;8.20;;;16.00;99.90;;;;;;5016807;28;20504;-67
2021/06/06 02:52:16;;;;;;;12.40;8.60;;;15.90;99.90;;;;;;5016932;28;20505;-67
2021/06/06 02:54:46;;;;;;;10.00;8.60;;;15.90;99.90;;;;;;5016866;28;20429;-67
2021/06/06 02:57:14;;;;;;;8.93;8.07;;;16.00;99.90;;;;;;5016698;28;20426;-67
2021/06/06 02:59:44;;;;;;;8.30;7.50;;;15.90;99.90;;;;;;5016671;28;20555;-67
2021/06/06 03:02:14;;;;;;;9.50;8.60;;;15.90;99.90;;;;;;5016970;28;20467;-67
2021/06/06 03:04:46;;;;;;;9.33;8.43;;;15.70;99.90;;;;;;5016937;28;20469;-67
2021/06/06 03:07:23;;;;;;;9.70;8.70;;;15.80;99.90;;;;;;5016595;28;20418;-67
2021/06/06 03:09:50;;;;;;;8.90;8.10;;;15.70;99.90;;;;;;5017251;28;20818;-67
2021/06/06 03:12:18;;;;;;;8.43;7.60;;;15.70;99.90;;;;;;5012725;28;20504;-67
2021/06/06 03:14:46;;;;;;;9.40;8.50;;;15.80;99.90;;;;;;5013527;28;20434;-67
2021/06/06 03:17:17;;;;;;;8.40;7.47;;;15.80;99.90;;;;;;5013279;28;20422;-67
2021/06/06 03:19:47;;;;;;;9.90;8.83;;;15.80;99.90;;;;;;5013585;28;21080;-67
2021/06/06 03:22:17;;;;;;;8.83;8.03;;;15.80;99.90;;;;;;5013636;28;20411;-67
2021/06/06 03:24:48;;;;;;;9.47;7.97;;;15.80;99.90;;;;;;5013516;28;20439;-67
2021/06/06 03:27:15;;;;;;;9.67;8.77;;;15.70;99.90;;;;;;5013079;28;20799;-67
2021/06/06 03:30:05;;;;;;;8.00;7.20;;;15.70;99.90;;;;;;5013659;28;20414;-67
2021/06/06 03:32:35;;;;;;;9.33;7.93;;;15.60;99.90;;;;;;5013419;28;20433;-67
2021/06/06 03:35:02;;;;;;;8.40;7.47;;;15.60;99.90;;;;;;5012853;28;20547;-67
2021/06/06 03:37:27;;;;;;;8.40;7.50;;;15.60;99.90;;;;;;5012571;28;20515;-67
2021/06/06 03:39:55;;;;;;;9.93;8.03;;;15.60;99.90;;;;;;5013291;28;20860;-67
2021/06/06 03:42:20;;;;;;;9.30;7.93;;;15.60;99.90;;;;;;5013462;28;20210;-67
2021/06/06 03:44:46;;;;;;;9.70;8.10;;;15.60;99.90;;;;;;5013157;28;20471;-67
2021/06/06 03:47:12;;;;;;;8.70;7.33;;;15.60;99.90;;;;;;5012786;28;20181;-67
2021/06/06 03:49:37;;;;;;;10.57;8.33;;;15.70;99.90;;;;;;5012631;28;20730;-67
2021/06/06 03:52:05;;;;;;;12.20;9.17;;;15.70;99.90;;;;;;5013086;28;20175;-67
2021/06/06 03:54:30;;;;;;;8.80;8.00;;;15.70;99.90;;;;;;5012924;28;20197;-67
2021/06/06 03:56:56;;;;;;;7.00;6.30;;;15.60;99.90;;;;;;5012924;28;20462;-67
2021/06/06 03:59:23;;;;;;;10.43;7.17;;;15.60;99.90;;;;;;5012216;28;20199;-67
2021/06/06 04:01:49;;;;;;;8.03;7.33;;;15.60;99.90;;;;;;5013043;28;20171;-67
2021/06/06 04:04:15;;;;;;;9.03;7.40;;;15.60;99.90;;;;;;5012564;28;20418;-67
2021/06/06 04:06:40;;;;;;;9.80;6.00;;;15.60;99.90;;;;;;5012695;28;20417;-67
2021/06/06 04:09:08;;;;;;;6.97;5.70;;;15.60;99.90;;;;;;5010693;28;20175;-67
2021/06/06 04:11:36;;;;;;;7.80;7.03;;;15.60;99.90;;;;;;5012743;28;20178;-67
2021/06/06 04:14:01;;;;;;;8.93;6.60;;;15.50;99.90;;;;;;5012609;28;20442;-67
2021/06/06 04:16:27;;;;;;;6.93;6.23;;;15.40;99.90;;;;;;5012561;28;20453;-67
2021/06/06 04:18:53;;;;;;;6.53;5.70;;;15.50;99.90;;;;;;5011709;28;20175;-67
2021/06/06 04:21:23;;;;;;;7.33;6.63;;;15.50;99.90;;;;;;5012292;28;20548;-67
2021/06/06 04:23:49;;;;;;;6.67;6.07;;;15.50;99.90;;;;;;5012472;28;20541;-67
2021/06/06 04:26:14;;;;;;;7.13;6.23;;;15.60;99.90;;;;;;5012301;28;20441;-67
2021/06/06 04:28:40;;;;;;;7.73;6.23;;;15.60;99.90;;;;;;5011742;28;20418;-67
2021/06/06 04:31:07;;;;;;;6.40;5.80;;;15.60;99.90;;;;;;5012184;28;20175;-67
2021/06/06 04:33:33;;;;;;;7.30;5.83;;;15.60;99.90;;;;;;5012192;28;20171;-67
2021/06/06 04:35:59;;;;;;;5.87;5.27;;;15.70;99.90;;;;;;5011978;28;20557;-67
2021/06/06 04:38:28;;;;;;;4.67;4.27;;;15.70;99.90;;;;;;5011500;28;20497;-67
2021/06/06 04:40:56;;;;;;;8.60;5.27;;;15.70;99.90;;;;;;5012239;28;20257;-67
2021/06/06 04:43:22;;;;;;;5.00;4.50;;;15.70;99.90;;;;;;5012322;28;20422;-67
2021/06/06 04:45:48;;;;;;;6.10;5.50;;;15.70;99.90;;;;;;5012102;28;21001;-67
2021/06/06 04:48:26;;;;;;;7.57;5.27;;;15.70;99.90;;;;;;5011211;28;20516;-67
2021/06/06 04:50:53;;;;;;;7.23;5.70;;;15.70;99.90;;;;;;5011865;28;20421;-67
2021/06/06 04:53:19;;;;;;;7.00;6.30;;;15.80;99.90;;;;;;5012038;28;20421;-67
2021/06/06 04:55:46;;;;;;;10.57;7.20;;;15.70;99.90;;;;;;5011729;28;20456;-67
2021/06/06 04:58:15;;;;;;;8.80;7.17;;;15.70;99.90;;;;;;5011157;28;20183;-67
2021/06/06 05:00:41;;;;;;;8.33;6.17;;;15.70;99.90;;;;;;5011729;28;20414;-67
2021/06/06 05:03:08;;;;;;;9.80;8.67;;;15.70;99.90;;;;;;5011889;28;20500;-67
2021/06/06 05:05:34;;;;;;;8.00;5.40;;;15.80;99.90;;;;;;5011806;28;20479;-67
2021/06/06 05:08:01;;;;;;;10.80;7.93;;;15.90;99.90;;;;;;5011170;28;20505;-67
2021/06/06 05:10:29;;;;;;;9.37;7.83;;;15.80;99.90;;;;;;5011764;28;20250;-67
2021/06/06 05:12:55;;;;;;;8.80;6.00;;;15.80;99.90;;;;;;5011395;28;20497;-67
2021/06/06 05:15:22;;;;;;;9.37;6.30;;;15.80;99.90;;;;;;5011491;28;20571;-67
2021/06/06 05:17:48;;;;;;;6.90;6.03;;;15.90;99.90;;;;;;5010714;28;20251;-67
2021/06/06 05:20:16;;;;;;;11.23;6.20;;;15.90;99.90;;;;;;5011476;28;20821;-67
2021/06/06 05:22:41;;;;;;;8.30;6.00;;;15.90;99.90;;;;;;5011298;28;20938;-67
2021/06/06 05:25:08;;;;;;;10.97;6.87;;;15.90;99.90;;;;;;5011317;28;20541;-67
2021/06/06 05:27:34;;;;;;;11.20;7.80;;;15.90;99.90;;;;;;5010614;28;20269;-67
2021/06/06 05:30:00;;;;;;;12.07;7.20;;;15.90;99.90;;;;;;5011357;28;20422;-67
2021/06/06 05:32:26;;;;;;;9.17;8.10;;;15.80;99.90;;;;;;5011258;28;20457;-67
2021/06/06 05:34:51;;;;;;;11.40;7.13;;;15.80;99.90;;;;;;5043187;23;20604;-69
2021/06/06 05:37:17;;;;;;;16.67;8.97;;;15.80;99.90;;;;;;4971559;28;20184;-69
2021/06/06 05:39:43;;;;;;;11.50;8.80;;;15.80;99.90;;;;;;4972215;28;20251;-69
2021/06/06 05:42:10;;;;;;;14.00;8.30;;;15.70;99.90;;;;;;4972160;28;20646;-70
2021/06/06 05:44:36;;;;;;;11.13;9.17;;;15.70;99.90;;;;;;4972137;28;20506;-69
2021/06/06 05:47:04;;;;;;;12.80;9.10;;;15.70;99.90;;;;;;4971982;28;20494;-69
2021/06/06 05:49:29;;;;;;;12.10;9.70;;;15.70;99.90;;;;;;4971390;28;20181;-70
2021/06/06 05:51:55;;;;;;;10.83;9.67;;;15.60;99.90;;;;;;4972144;28;20418;-69
2021/06/06 05:54:21;;;;;;;11.57;9.77;;;15.60;99.90;;;;;;4971946;28;20645;-70
2021/06/06 05:56:47;;;;;;;13.63;9.83;;;15.60;99.90;;;;;;4971798;28;20196;-70
2021/06/06 05:59:12;;;;;;;12.17;10.87;;;15.70;99.90;;;;;;4971195;28;20183;-70
2021/06/06 06:01:38;;;;;;;13.10;10.90;;;15.70;99.90;;;;;;4972215;28;20861;-69
2021/06/06 06:04:04;;;;;;;15.47;9.20;;;15.70;99.90;;;;;;4971921;28;20168;-69
2021/06/06 06:06:30;;;;;;;16.50;11.43;;;15.80;99.90;;;;;;4971976;28;20200;-69
2021/06/06 06:08:55;;;;;;;12.47;10.67;;;15.80;99.90;;;;;;4971338;28;20188;-70
2021/06/06 06:11:22;;;;;;;14.97;12.10;;;15.80;99.90;;;;;;4971761;28;20198;-69
2021/06/06 06:13:49;;;;;;;15.90;14.20;;;15.80;99.90;;;;;;4971938;28;20307;-69
2021/06/06 06:16:17;;;;;;;16.63;14.43;;;15.80;99.90;;;;;;4971568;28;20929;-69
2021/06/06 06:18:42;;;;;;;12.83;11.33;;;15.90;99.90;;;;;;4971041;28;20514;-69
2021/06/06 06:21:15;;;;;;;17.87;11.50;;;16.00;99.90;;;;;;4971676;28;20927;-69
2021/06/06 06:23:41;;;;;;;12.80;11.10;;;16.00;99.90;;;;;;4971637;28;20646;-70
2021/06/06 06:26:08;;;;;;;12.83;11.50;;;16.00;99.90;;;;;;4971609;28;20455;-69
2021/06/06 06:28:33;;;;;;;13.73;11.60;;;16.10;99.90;;;;;;4971026;28;20439;-70
2021/06/06 06:31:00;;;;;;;12.30;11.00;;;16.20;99.90;;;;;;4970338;28;20941;-70
2021/06/06 06:33:26;;;;;;;11.77;10.60;;;16.20;99.90;;;;;;4971673;28;20267;-69
2021/06/06 06:35:52;;;;;;;11.43;10.33;;;16.20;99.90;;;;;;4971335;28;20595;-69
2021/06/06 06:38:18;;;;;;;11.47;7.97;;;16.20;99.90;;;;;;4970850;28;20510;-70
2021/06/06 06:40:43;;;;;;;9.33;8.43;;;16.30;99.90;;;;;;4971645;28;20327;-69
2021/06/06 06:43:10;;;;;;;9.80;8.80;;;16.20;99.90;;;;;;4971668;28;20510;-70
2021/06/06 06:45:39;;;;;;;11.20;9.30;;;16.20;99.90;;;;;;4970419;28;20208;-71
2021/06/06 06:48:26;;;;;;;9.13;8.13;;;16.40;99.90;;;;;;4974586;28;20481;-69
2021/06/06 06:50:53;;;;;;;8.97;8.17;;;16.40;99.90;;;;;;4974925;28;20798;-69
2021/06/06 06:53:20;;;;;;;7.80;7.00;;;16.30;99.90;;;;;;4975070;28;20427;-69
2021/06/06 06:55:46;;;;;;;7.57;6.97;;;16.30;99.90;;;;;;4975036;28;20983;-70
2021/06/06 06:58:12;;;;;;;8.80;8.00;;;16.40;99.90;;;;;;4974386;28;20419;-70
2021/06/06 07:00:42;;;;;;;9.00;8.13;;;16.40;99.90;;;;;;4975012;28;20451;-69
2021/06/06 07:03:09;;;;;;;8.97;8.27;;;16.30;99.90;;;;;;4975006;28;20411;-69
2021/06/06 07:05:35;;;;;;;8.57;7.60;;;16.30;99.90;;;;;;4974752;28;20541;-69
2021/06/06 07:08:03;;;;;;;8.67;7.90;;;16.30;99.90;;;;;;4974232;28;20423;-69
2021/06/06 07:10:32;;;;;;;9.97;8.97;;;16.20;99.90;;;;;;4975055;28;20455;-69
2021/06/06 07:12:58;;;;;;;10.13;9.13;;;16.20;99.90;;;;;;4974687;28;20426;-69
2021/06/06 07:15:24;;;;;;;9.20;8.30;;;16.20;99.90;;;;;;4974534;28;20976;-69
2021/06/06 07:17:50;;;;;;;11.67;10.63;;;16.20;99.90;;;;;;4973827;28;20434;-69
2021/06/06 07:20:24;;;;;;;10.73;9.73;;;16.30;99.90;;;;;;4974591;28;20239;-70
2021/06/06 07:22:50;;;;;;;9.53;8.73;;;16.40;99.90;;;;;;4974620;28;20168;-71
2021/06/06 07:25:18;;;;;;;10.90;9.77;;;16.50;99.90;;;;;;4974542;28;20448;-70
2021/06/06 07:27:44;;;;;;;10.83;9.87;;;16.40;99.90;;;;;;4973842;28;20457;-69
2021/06/06 07:30:22;;;;;;;13.13;9.20;;;16.40;99.90;;;;;;4974365;28;20430;-70
2021/06/06 07:32:47;;;;;;;9.70;8.70;;;16.40;99.90;;;;;;4974391;28;21006;-69
2021/06/06 07:35:14;;;;;;;11.63;9.77;;;16.40;99.90;;;;;;4973957;28;20565;-68
2021/06/06 07:37:40;;;;;;;11.17;10.10;;;16.40;99.90;;;;;;4972499;28;20692;-68
2021/06/06 07:40:07;;;;;;;11.07;9.97;;;16.30;99.90;;;;;;4974323;28;20424;-69
2021/06/06 07:42:34;;;;;;;12.20;10.77;;;16.30;99.90;;;;;;4974444;28;20164;-68
2021/06/06 07:45:01;;;;;;;13.40;10.73;;;16.30;99.90;;;;;;4974371;28;20459;-69
2021/06/06 07:47:27;;;;;;;14.03;10.47;;;16.40;99.90;;;;;;4973789;28;20420;-69
2021/06/06 07:49:52;;;;;;;12.77;10.83;;;16.40;99.90;;;;;;4974416;28;20415;-69
2021/06/06 07:52:18;;;;;;;13.23;11.37;;;16.30;99.90;;;;;;4974157;28;20920;-69
2021/06/06 07:54:44;;;;;;;22.23;13.90;;;16.40;99.90;;;;;;4973950;28;20230;-69
2021/06/06 07:57:09;;;;;;;13.47;11.33;;;16.40;99.90;;;;;;4973227;28;20168;-71
2021/06/06 07:59:35;;;;;;;13.90;12.47;;;16.40;99.90;;;;;;4973354;28;20423;-70
2021/06/06 08:02:01;;;;;;;15.50;13.03;;;16.30;99.90;;;;;;4973916;28;20195;-69
2021/06/06 08:04:26;;;;;;;15.00;11.43;;;16.30;99.90;;;;;;4973764;28;20243;-69
2021/06/06 08:06:53;;;;;;;16.67;13.33;;;16.40;99.90;;;;;;4973794;28;20176;-69
2021/06/06 08:09:18;;;;;;;19.77;15.80;;;16.50;99.90;;;;;;4973051;28;20358;-69
2021/06/06 08:11:44;;;;;;;18.70;13.47;;;16.40;99.90;;;;;;4972429;28;20530;-69
2021/06/06 08:14:10;;;;;;;16.97;14.33;;;16.40;99.90;;;;;;4974017;28;20255;-69
2021/06/06 08:16:36;;;;;;;16.73;13.90;;;16.40;99.90;;;;;;4973715;28;20204;-70
2021/06/06 08:19:03;;;;;;;19.30;14.03;;;16.30;99.90;;;;;;4972660;28;20173;-70
2021/06/06 08:21:37;;;;;;;18.90;15.17;;;16.30;99.90;;;;;;4973551;28;20419;-69
2021/06/06 08:24:04;;;;;;;16.73;14.03;;;16.30;99.90;;;;;;4973522;28;20470;-69
2021/06/06 08:26:30;;;;;;;23.57;15.97;;;16.30;99.90;;;;;;4973300;28;20518;-69
2021/06/06 08:28:56;;;;;;;22.07;15.30;;;16.30;99.90;;;;;;4972661;28;20431;-70
2021/06/06 08:31:25;;;;;;;22.20;15.93;;;16.30;99.90;;;;;;4973262;28;20172;-71
2021/06/06 08:33:51;;;;;;;23.10;15.60;;;16.40;99.90;;;;;;4973289;28;20466;-70
2021/06/06 08:36:22;;;;;;;22.87;15.33;;;16.40;99.90;;;;;;4971931;28;20471;-69
2021/06/06 08:38:48;;;;;;;18.80;14.37;;;16.40;99.90;;;;;;4972455;28;20185;-69
2021/06/06 08:41:27;;;;;;;19.50;14.73;;;16.50;99.90;;;;;;4972953;28;20424;-69
2021/06/06 08:44:05;;;;;;;19.40;13.83;;;16.50;99.90;;;;;;4973129;28;20434;-69
2021/06/06 08:46:34;;;;;;;18.10;14.47;;;16.50;99.90;;;;;;4973140;28;20447;-69
2021/06/06 08:49:01;;;;;;;17.03;14.23;;;16.50;99.90;;;;;;4972394;28;20452;-69
2021/06/06 08:51:48;;;;;;;16.13;14.20;;;16.50;99.90;;;;;;4973049;28;20802;-69
2021/06/06 08:54:33;;;;;;;24.80;16.43;;;16.60;99.90;;;;;;4973094;28;20415;-70
2021/06/06 08:57:38;;;;;;;19.80;16.07;;;16.60;99.90;;;;;;4972661;28;20467;-69
2021/06/06 09:00:21;;;;;;;19.23;14.60;;;16.80;99.90;;;;;;4972449;28;20439;-69
2021/06/06 09:02:49;;;;;;;17.40;14.70;;;16.80;99.90;;;;;;4972696;28;20428;-69
2021/06/06 09:05:37;;;;;;;18.30;15.87;;;16.90;99.90;;;;;;4972568;28;20451;-69
2021/06/06 09:08:06;;;;;;;25.17;16.33;;;16.90;99.90;;;;;;4971706;28;20435;-71
2021/06/06 09:10:37;;;;;;;21.27;16.40;;;17.00;99.90;;;;;;4972191;28;20456;-68
2021/06/06 09:13:07;;;;;;;20.60;15.47;;;17.20;99.90;;;;;;4972405;28;20415;-70
2021/06/06 09:15:34;;;;;;;17.20;14.50;;;17.20;99.90;;;;;;4972574;28;20498;-70
2021/06/06 09:18:14;;;;;;;19.40;14.37;;;17.30;99.90;;;;;;4971739;28;20474;-69
2021/06/06 09:20:42;;;;;;;16.67;13.70;;;17.40;99.90;;;;;;4972205;28;20427;-70
2021/06/06 09:23:19;;;;;;;15.70;13.37;;;17.30;99.90;;;;;;4972239;28;20803;-69
2021/06/06 09:26:05;;;;;;;13.37;11.97;;;17.30;99.90;;;;;;4972246;28;20479;-69
2021/06/06 09:28:33;;;;;;;18.07;13.40;;;17.20;99.90;;;;;;4971914;28;20428;-69
2021/06/06 09:31:10;;;;;;;14.83;13.33;;;17.30;99.90;;;;;;4972219;28;20458;-69
2021/06/06 09:33:38;;;;;;;14.40;12.90;;;17.30;99.90;;;;;;4972251;28;20982;-69
2021/06/06 09:36:18;;;;;;;16.23;14.17;;;17.30;99.90;;;;;;4970887;28;20467;-69
2021/06/06 09:38:45;;;;;;;16.63;14.80;;;17.20;99.90;;;;;;4971595;28;20913;-69
2021/06/06 09:41:13;;;;;;;18.03;14.80;;;17.30;99.90;;;;;;4972078;28;20724;-69
2021/06/06 09:43:39;;;;;;;19.33;13.73;;;17.30;99.90;;;;;;4972131;28;20412;-70
2021/06/06 09:46:17;;;;;;;15.37;13.80;;;17.30;99.90;;;;;;4972072;28;20447;-68
2021/06/06 09:48:45;;;;;;;16.20;14.50;;;17.20;99.90;;;;;;4971446;28;20243;-69
2021/06/06 09:51:21;;;;;;;14.07;12.57;;;17.30;99.90;;;;;;4971922;28;20416;-69
2021/06/06 09:53:47;;;;;;;15.57;13.10;;;17.20;99.90;;;;;;4971970;28;20419;-69
2021/06/06 09:56:21;;;;;;;16.00;12.70;;;17.20;99.90;;;;;;4971657;28;21002;-69
2021/06/06 09:58:48;;;;;;;13.77;12.37;;;17.30;99.90;;;;;;4971069;28;20652;-69
2021/06/06 10:01:29;;;;;;;20.10;15.00;;;17.30;99.90;;;;;;4971836;28;20820;-69
2021/06/06 10:04:00;;;;;;;15.30;12.33;;;17.30;99.90;;;;;;4971942;28;20415;-69
2021/06/06 10:06:40;;;;;;;15.90;14.40;;;17.20;99.90;;;;;;4971911;28;20792;-70
2021/06/06 10:09:06;;;;;;;13.73;12.43;;;17.30;99.90;;;;;;4971161;28;20424;-70
2021/06/06 10:11:39;;;;;;;15.13;13.73;;;17.40;99.90;;;;;;4971857;28;20423;-70
2021/06/06 10:14:06;;;;;;;19.73;17.63;;;17.30;99.90;;;;;;4971739;28;20683;-70
2021/06/06 10:16:39;;;;;;;19.40;17.53;;;17.20;99.90;;;;;;4971649;28;20507;-70
2021/06/06 10:19:20;;;;;;;18.87;16.87;;;17.00;99.90;;;;;;4970881;28;20416;-69
2021/06/06 10:21:47;;;;;;;19.83;17.73;;;17.00;99.90;;;;;;4975401;28;20928;-70
2021/06/06 10:24:37;;;;;;;22.47;18.40;;;17.10;99.90;;;;;;4975575;28;20435;-70
2021/06/06 10:27:35;;;;;;;24.50;19.83;;;17.20;99.90;;;;;;4964849;28;20765;-70
2021/06/06 10:30:07;;;;;;;24.40;19.43;;;17.30;99.90;;;;;;4971280;28;20431;-71
2021/06/06 10:32:43;;;;;;;24.67;22.03;;;17.50;99.90;;;;;;4975482;28;20436;-69
2021/06/06 10:35:18;;;;;;;25.13;20.80;;;17.50;99.90;;;;;;4973914;28;20477;-71
2021/06/06 10:37:47;;;;;;;25.17;21.00;;;17.70;99.90;;;;;;4973814;28;20652;-70
2021/06/06 10:40:32;;;;;;;24.60;22.00;;;17.60;99.90;;;;;;4975226;28;20924;-70
2021/06/06 10:43:10;;;;;;;24.80;21.87;;;17.50;99.90;;;;;;4975329;28;20419;-69
2021/06/06 10:45:47;;;;;;;26.13;23.33;;;17.40;99.90;;;;;;4975165;28;21035;-70
2021/06/06 10:48:22;;;;;;;27.43;23.43;;;17.20;99.90;;;;;;4974448;28;20905;-70
2021/06/06 10:50:52;;;;;;;28.70;23.50;;;17.30;99.90;;;;;;4975026;28;20427;-70
2021/06/06 10:53:28;;;;;;;28.93;25.43;;;17.30;99.90;;;;;;4975025;28;20431;-70
2021/06/06 10:56:05;;;;;;;25.00;22.40;;;17.50;99.90;;;;;;4973583;28;20470;-70
2021/06/06 10:58:40;;;;;;;31.77;25.90;;;17.50;99.90;;;;;;4974368;28;20419;-70
2021/06/06 11:01:17;;;;;;;26.87;23.90;;;17.70;99.90;;;;;;4974799;28;20407;-70
2021/06/06 11:03:44;;;;;;;29.13;26.10;;;17.70;99.90;;;;;;4974784;28;20469;-69
2021/06/06 11:06:32;;;;;;;28.37;25.37;;;17.70;99.90;;;;;;4974779;28;20447;-69
2021/06/06 11:08:58;;;;;;;31.10;25.30;;;17.90;99.90;;;;;;4974047;28;20419;-70
2021/06/06 11:11:36;;;;;;;29.73;26.50;;;17.90;99.90;;;;;;4975201;28;20767;-71
2021/06/06 11:14:08;;;;;;;31.37;27.47;;;17.80;99.90;;;;;;4974878;28;20180;-70
2021/06/06 11:16:38;;;;;;;31.17;27.20;;;17.70;99.90;;;;;;4974706;28;20467;-70
2021/06/06 11:19:07;;;;;;;31.43;28.03;;;17.70;99.90;;;;;;4973815;28;20507;-71
2021/06/06 11:21:45;;;;;;;34.43;30.37;;;17.90;99.90;;;;;;4974556;28;20411;-69
2021/06/06 11:24:44;;;;;;;31.63;27.67;;;18.00;99.90;;;;;;4974846;28;20781;-71
2021/06/06 11:27:10;;;;;;;34.77;31.03;;;18.20;99.90;;;;;;4974137;28;20507;-69
2021/06/06 11:29:57;;;;;;;39.93;32.70;;;18.10;99.90;;;;;;4974089;28;20503;-70
2021/06/06 11:32:28;;;;;;;37.70;30.90;;;18.10;99.90;;;;;;4973486;28;20200;-71
2021/06/06 11:35:08;;;;;;;44.50;36.13;;;17.90;99.90;;;;;;4974710;28;20509;-70
2021/06/06 11:37:44;;;;;;;47.67;36.40;;;17.70;99.90;;;;;;4973610;28;20444;-71
2021/06/06 11:40:27;;;;;;;45.27;35.20;;;17.70;99.90;;;;;;4974475;28;20407;-69
2021/06/06 11:42:57;;;;;;;47.97;38.17;;;17.60;99.90;;;;;;4972935;28;20498;-70
2021/06/06 11:45:31;;;;;;;47.80;38.23;;;17.60;99.90;;;;;;4974133;28;20455;-70
2021/06/06 11:48:01;;;;;;;45.93;38.50;;;17.80;99.90;;;;;;4973488;28;20419;-70
2021/06/06 11:50:37;;;;;;;44.97;36.03;;;17.70;99.90;;;;;;4974118;28;20595;-70
2021/06/06 11:53:14;;;;;;;49.30;38.33;;;17.70;99.90;;;;;;4974165;28;20773;-70
2021/06/06 11:55:50;;;;;;;46.57;38.63;;;17.60;99.90;;;;;;4973902;28;20459;-70
2021/06/06 11:58:26;;;;;;;47.73;38.40;;;17.70;99.90;;;;;;4973575;28;20419;-70
2021/06/06 12:01:15;;;;;;;51.30;40.90;;;17.70;99.90;;;;;;4973925;28;20434;-69
2021/06/06 12:03:44;;;;;;;48.50;37.97;;;17.60;99.90;;;;;;4973927;28;20832;-71
2021/06/06 12:06:19;;;;;;;47.50;36.97;;;17.50;99.90;;;;;;4973864;28;20546;-69
2021/06/06 12:08:49;;;;;;;53.40;39.57;;;17.60;99.90;;;;;;4973339;28;20444;-71
2021/06/06 12:11:24;;;;;;;53.37;39.07;;;17.60;99.90;;;;;;4974134;28;20446;-71
2021/06/06 12:14:11;;;;;;;48.93;40.33;;;17.70;99.90;;;;;;4973693;28;20419;-70
2021/06/06 12:16:45;;;;;;;48.83;41.10;;;17.70;99.90;;;;;;4973367;28;20478;-71
2021/06/06 12:19:14;;;;;;;43.50;35.03;;;17.80;99.90;;;;;;4972729;28;20828;-70
2021/06/06 12:21:43;;;;;;;45.60;38.17;;;17.90;99.90;;;;;;4973576;28;20443;-71
2021/06/06 12:24:19;;;;;;;46.23;39.17;;;17.90;99.90;;;;;;4973322;28;20431;-69
2021/06/06 12:27:03;;;;;;;50.43;40.80;;;17.90;99.90;;;;;;4973451;28;20423;-70
2021/06/06 12:29:34;;;;;;;51.03;40.13;;;17.90;99.90;;;;;;4972786;28;20506;-70
2021/06/06 12:32:10;;;;;;;46.40;39.87;;;17.90;99.90;;;;;;4973600;28;20463;-70
2021/06/06 12:34:36;;;;;;;44.80;35.17;;;17.90;99.90;;;;;;4972981;28;20429;-70
2021/06/06 12:37:11;;;;;;;42.47;36.17;;;18.10;99.90;;;;;;4971451;28;20463;-70
2021/06/06 12:39:44;;;;;;;38.47;34.10;;;18.10;99.90;;;;;;4972729;28;20509;-70
2021/06/06 12:42:12;;;;;;;36.30;32.60;;;18.30;99.90;;;;;;4973110;28;20416;-70
2021/06/06 12:44:44;;;;;;;36.77;32.73;;;18.30;99.90;;;;;;4973124;28;20510;-70
2021/06/06 12:47:29;;;;;;;33.20;29.57;;;18.30;99.90;;;;;;4972617;28;20499;-69
2021/06/06 12:50:01;;;;;;;34.73;30.07;;;18.40;99.90;;;;;;4972958;28;20814;-69
2021/06/06 12:52:32;;;;;;;34.77;29.27;;;18.30;99.90;;;;;;4972859;28;20443;-71
2021/06/06 12:55:12;;;;;;;33.03;29.43;;;18.30;99.90;;;;;;4973006;28;20442;-70